Terminal Aerodrome Forecast
Issued by NWS Detroit/Pontiac, MI

Home | Current Version | Previous Version | Text Only | Print | Product List | Glossary On
Versions: 1 2 3 4 5 6 7 8 9 10 11 12 13 14 15 16 17 18 19
346
FTUS43 KDTX 070058 AAA
TAFFNT
TAF AMD
KFNT 070058Z 0701/0724 24007KT P6SM OVC035
     FM070400 22006KT P6SM BKN035
     FM070800 21006KT P6SM SCT045 BKN100
     FM071600 20012G22KT P6SM OVC080
     FM072300 23009KT P6SM SCT025 OVC050=

USA.gov is the U.S. government's official web portal to all federal, state and local government web resources and services.